KBJJ/BJJ METAR and TAF weather

Enter ICAO airport designator
Station Type Date Time Source
KBJJ METAR 2022/06/30 13:56 UTC NOAA

KBJJ 301356Z AUTO 22004KT 10SM CLR 24/13 A3025 RMK AO2 SLP237 T02440128


Station Type Date Time Source
KBJJ Decoded METAR 2022/06/30 13:56 UTC NOAA

WOOSTER WAYNE COUNTY AIRPORT, OH, United States (KBJJ) 40-52N 81-53W 343M
Jun 30, 2022 - 09:56 AM EDT / 2022.06.30 1356 UTC
Wind: from the SW (220 degrees) at 5 MPH (4 KT):0
Visibility: 10 mile(s):0
Sky conditions: clear
Temperature: 75.9 F (24.4 C)
Dew Point: 55.0 F (12.8 C)
Relative Humidity: 48%
Pressure (altimeter): 30.25 in. Hg (1024 hPa)
ob: KBJJ 301356Z AUTO 22004KT 10SM CLR 24/13 A3025 RMK AO2 SLP237 T02440128
cycle: 14

Station Type Date Time Source
KBJJ TAF UTC NOAA

Error!

Example: see airport list